createdAt,value
2023-02-17T00:01:33.597Z,4.29
2023-02-17T00:04:19.110Z,4.57
2023-02-17T00:07:04.570Z,4.36
2023-02-17T00:09:49.947Z,3.46
2023-02-17T00:12:36.718Z,4.71
2023-02-17T00:15:22.653Z,4.45
2023-02-17T00:18:08.345Z,4.67
2023-02-17T00:20:53.871Z,4.61
2023-02-17T00:23:39.335Z,3.42
2023-02-17T00:26:25.234Z,4.58
2023-02-17T00:29:10.733Z,3.77
2023-02-17T00:31:56.664Z,4.32
2023-02-17T00:34:42.549Z,4.54
2023-02-17T00:37:28.685Z,4.22
2023-02-17T00:40:15.363Z,3.95
2023-02-17T00:43:00.875Z,4.47
2023-02-17T00:45:46.185Z,4.42
2023-02-17T00:48:33.046Z,4.38
2023-02-17T00:51:19.620Z,2.84
2023-02-17T00:54:05.898Z,4.35
2023-02-17T00:56:51.885Z,4.30
2023-02-17T00:59:37.637Z,3.38
2023-02-17T01:02:26.597Z,4.23
2023-02-17T01:05:14.216Z,4.32
2023-02-17T01:08:03.927Z,3.11
2023-02-17T01:10:51.945Z,4.05
2023-02-17T01:13:37.569Z,4.21
2023-02-17T01:16:39.589Z,3.29
2023-02-17T01:19:25.388Z,4.02
2023-02-17T01:22:12.506Z,4.29
2023-02-17T01:24:58.166Z,4.27
2023-02-17T01:27:47.288Z,4.21
2023-02-17T01:30:32.943Z,3.84
2023-02-17T01:33:18.599Z,2.74
2023-02-17T01:36:06.550Z,3.03
2023-02-17T01:38:52.429Z,4.23
2023-02-17T01:41:37.805Z,4.23
2023-02-17T01:44:25.509Z,4.04
2023-02-17T01:47:13.001Z,4.24
2023-02-17T01:49:58.860Z,4.02
2023-02-17T01:52:44.851Z,4.24
2023-02-17T01:55:33.145Z,4.21
2023-02-17T01:58:22.131Z,3.66
2023-02-17T02:01:08.325Z,4.23
2023-02-17T02:03:54.382Z,4.16
2023-02-17T02:06:43.789Z,3.05
2023-02-17T02:09:41.779Z,4.26
2023-02-17T02:12:30.584Z,3.98
2023-02-17T02:15:19.739Z,4.02
2023-02-17T02:18:23.760Z,4.22
2023-02-17T02:21:18.291Z,4.21
2023-02-17T02:24:22.651Z,4.22
2023-02-17T02:27:18.044Z,3.04
2023-02-17T02:30:21.868Z,4.19
2023-02-17T02:33:30.549Z,4.19
2023-02-17T02:36:37.220Z,3.24
2023-02-17T02:39:26.761Z,3.64
2023-02-17T02:42:16.639Z,3.02
2023-02-17T02:45:02.414Z,3.13
2023-02-17T02:47:53.740Z,4.21
2023-02-17T02:51:03.654Z,4.22
2023-02-17T02:53:55.175Z,4.20
2023-02-17T02:57:04.371Z,3.90
2023-02-17T03:00:30.866Z,3.56
2023-02-17T03:03:48.587Z,4.23
2023-02-17T03:06:40.278Z,4.21
2023-02-17T03:09:27.567Z,4.17
2023-02-17T03:12:12.943Z,4.16
2023-02-17T03:15:04.569Z,3.78
2023-02-17T03:17:50.058Z,3.73
2023-02-17T03:20:42.014Z,2.95
2023-02-17T03:23:27.584Z,2.94
2023-02-17T03:26:12.957Z,4.19
2023-02-17T03:28:58.242Z,4.09
2023-02-17T03:31:43.924Z,4.16
2023-02-17T03:34:29.227Z,4.16
2023-02-17T03:37:14.576Z,3.55
2023-02-17T03:39:59.991Z,2.84
2023-02-17T03:42:45.263Z,4.10
2023-02-17T03:45:30.677Z,4.13
2023-02-17T03:48:16.011Z,3.00
2023-02-17T03:51:20.648Z,3.18
2023-02-17T03:54:06.748Z,3.14
2023-02-17T03:56:52.050Z,4.11
2023-02-17T03:59:37.601Z,3.76
2023-02-17T04:02:23.221Z,4.09
2023-02-17T04:05:08.505Z,3.09
2023-02-17T04:07:54.063Z,3.13
2023-02-17T04:10:39.466Z,4.13
2023-02-17T04:13:25.781Z,4.08
2023-02-17T04:16:12.509Z,4.10
2023-02-17T04:18:57.748Z,4.15
2023-02-17T04:21:43.263Z,2.79
2023-02-17T04:24:28.605Z,4.18
2023-02-17T04:27:14.020Z,2.76
2023-02-17T04:29:59.484Z,3.46
2023-02-17T04:32:44.690Z,3.14
2023-02-17T04:35:30.749Z,4.16
2023-02-17T04:38:16.567Z,3.65
2023-02-17T04:41:02.378Z,2.87
2023-02-17T04:43:47.662Z,3.87
2023-02-17T04:46:33.076Z,4.19
2023-02-17T04:49:18.508Z,3.99
2023-02-17T04:52:04.432Z,3.06
2023-02-17T04:54:49.788Z,4.21
2023-02-17T04:57:35.516Z,3.53
2023-02-17T05:00:21.453Z,3.15
2023-02-17T05:03:07.314Z,4.16
2023-02-17T05:05:52.771Z,3.84
2023-02-17T05:08:38.262Z,2.92
2023-02-17T05:11:23.744Z,3.92
2023-02-17T05:14:09.164Z,3.71
2023-02-17T05:16:54.770Z,4.21
2023-02-17T05:19:40.110Z,4.19
2023-02-17T05:22:26.592Z,4.19
2023-02-17T05:25:12.307Z,3.77
2023-02-17T05:27:57.951Z,4.24
2023-02-17T05:30:43.508Z,2.71
2023-02-17T05:33:29.334Z,4.02
2023-02-17T05:36:15.247Z,4.24
2023-02-17T05:39:00.884Z,3.05
2023-02-17T05:41:46.103Z,4.11
2023-02-17T05:44:31.621Z,3.09
2023-02-17T05:47:16.979Z,3.73
2023-02-17T05:50:02.786Z,3.87
2023-02-17T05:52:48.129Z,4.24
2023-02-17T05:55:33.476Z,3.27
2023-02-17T05:58:19.139Z,3.41
2023-02-17T06:01:12.245Z,4.40
2023-02-17T06:03:57.769Z,4.41
2023-02-17T06:06:43.174Z,3.28
2023-02-17T06:09:28.617Z,4.48
2023-02-17T06:12:14.073Z,4.51
2023-02-17T06:14:59.643Z,3.27
2023-02-17T06:17:44.878Z,4.35
2023-02-17T06:20:30.634Z,4.64
2023-02-17T06:23:16.399Z,3.62
2023-02-17T06:26:02.015Z,4.72
2023-02-17T06:28:47.721Z,4.75
2023-02-17T06:31:33.837Z,4.39
2023-02-17T06:34:19.357Z,3.60
2023-02-17T06:37:04.863Z,4.11
2023-02-17T06:39:50.169Z,3.65
2023-02-17T06:42:35.834Z,4.89
2023-02-17T06:45:21.143Z,3.65
2023-02-17T06:48:06.571Z,3.70
2023-02-17T06:50:53.288Z,4.99
2023-02-17T06:53:39.745Z,4.70
2023-02-17T06:56:25.892Z,5.00
2023-02-17T06:59:11.457Z,4.93
2023-02-17T07:01:59.086Z,5.04
2023-02-17T07:04:47.850Z,5.03
2023-02-17T07:07:36.347Z,5.04
2023-02-17T07:10:24.176Z,5.06
2023-02-17T07:13:11.945Z,5.07
2023-02-17T07:16:03.126Z,5.13
2023-02-17T07:18:49.405Z,5.15
2023-02-17T07:21:36.358Z,5.38
2023-02-17T07:24:22.913Z,5.60
2023-02-17T07:27:10.862Z,4.46
2023-02-17T07:29:57.000Z,5.94
2023-02-17T07:32:42.438Z,4.97
2023-02-17T07:35:28.471Z,5.97
2023-02-17T07:38:14.129Z,5.14
2023-02-17T07:41:09.560Z,6.34
2023-02-17T07:43:56.933Z,6.51
2023-02-17T07:46:43.142Z,6.75
2023-02-17T07:49:29.284Z,6.70
2023-02-17T07:52:18.190Z,6.37
2023-02-17T07:55:04.223Z,6.52
2023-02-17T07:57:49.877Z,6.89
2023-02-17T08:00:35.437Z,6.92
2023-02-17T08:03:21.700Z,7.00
2023-02-17T08:06:12.950Z,6.92
2023-02-17T08:09:17.471Z,7.02
2023-02-17T08:12:21.368Z,7.12
2023-02-17T08:15:10.118Z,6.93
2023-02-17T08:17:55.866Z,6.11
2023-02-17T08:20:41.324Z,7.44
2023-02-17T08:23:27.336Z,7.61
2023-02-17T08:26:14.896Z,7.76
2023-02-17T08:29:01.160Z,7.74
2023-02-17T08:31:51.533Z,7.88
2023-02-17T08:34:38.238Z,7.46
2023-02-17T08:37:24.075Z,7.61
2023-02-17T08:40:10.198Z,7.82
2023-02-17T08:42:56.774Z,6.81
2023-02-17T08:45:42.971Z,7.97
2023-02-17T08:48:28.471Z,7.14
2023-02-17T08:51:23.457Z,7.64
2023-02-17T08:54:11.272Z,8.19
2023-02-17T08:56:58.610Z,8.27
2023-02-17T08:59:48.478Z,7.50
2023-02-17T09:02:35.974Z,8.39
2023-02-17T09:05:23.160Z,7.35
2023-02-17T09:08:10.978Z,7.02
2023-02-17T09:10:57.183Z,8.14
2023-02-17T09:13:46.770Z,8.56
2023-02-17T09:16:35.476Z,8.62
2023-02-17T09:19:24.871Z,7.50
2023-02-17T09:22:26.114Z,8.67
2023-02-17T09:25:16.181Z,8.12
2023-02-17T09:28:01.660Z,8.34
2023-02-17T09:30:48.445Z,8.32
2023-02-17T09:33:34.762Z,8.30
2023-02-17T09:36:23.080Z,8.81
2023-02-17T09:39:12.288Z,8.84
2023-02-17T09:41:59.016Z,7.84
2023-02-17T09:44:49.180Z,9.13
2023-02-17T09:47:58.054Z,8.04
2023-02-17T09:51:12.492Z,9.04
2023-02-17T09:54:13.698Z,9.25
2023-02-17T09:57:01.750Z,8.96
2023-02-17T09:59:55.667Z,8.01
2023-02-17T10:03:12.994Z,8.99
2023-02-17T10:06:28.584Z,9.49
2023-02-17T10:09:19.843Z,9.55
2023-02-17T10:12:10.107Z,9.62
2023-02-17T10:15:09.499Z,9.71
2023-02-17T10:18:05.680Z,9.12
2023-02-17T10:21:07.286Z,8.84
2023-02-17T10:23:52.862Z,9.83
2023-02-17T10:26:56.913Z,8.84
2023-02-17T10:30:14.404Z,8.79
2023-02-17T10:33:11.971Z,9.68
2023-02-17T10:36:19.991Z,9.66
2023-02-17T10:39:36.238Z,9.47
2023-02-17T10:42:37.918Z,9.36
2023-02-17T10:45:41.742Z,9.79
2023-02-17T10:48:35.833Z,9.13
2023-02-17T10:51:28.157Z,9.90
2023-02-17T10:54:42.416Z,9.82
2023-02-17T10:57:33.343Z,8.58
2023-02-17T11:00:19.634Z,9.73
2023-02-17T11:03:05.224Z,9.86
2023-02-17T11:05:57.039Z,9.58
2023-02-17T11:08:51.423Z,9.17
2023-02-17T11:11:37.084Z,9.70
2023-02-17T11:14:33.650Z,9.17
2023-02-17T11:17:28.170Z,9.69
2023-02-17T11:20:13.588Z,9.34
2023-02-17T11:23:16.460Z,8.62
2023-02-17T11:26:09.434Z,9.51
2023-02-17T11:28:55.308Z,9.82
2023-02-17T11:31:41.394Z,9.69
2023-02-17T11:34:30.330Z,9.98
2023-02-17T11:37:20.324Z,10.02
2023-02-17T11:40:26.444Z,9.75
2023-02-17T11:43:19.020Z,9.16
2023-02-17T11:46:13.926Z,9.36
2023-02-17T11:49:31.213Z,10.38
2023-02-17T11:52:35.960Z,10.44
2023-02-17T11:56:09.968Z,10.50
2023-02-17T11:59:43.951Z,10.57
2023-02-17T12:02:59.013Z,10.63
2023-02-17T12:06:09.079Z,10.64
2023-02-17T12:09:11.090Z,10.70
2023-02-17T12:12:15.232Z,10.73
2023-02-17T12:15:11.720Z,9.65
2023-02-17T12:18:10.147Z,10.46
2023-02-17T12:21:10.732Z,10.68
2023-02-17T12:24:07.881Z,10.63
2023-02-17T12:27:21.356Z,9.78
2023-02-17T12:30:14.653Z,10.48
2023-02-17T12:33:20.781Z,10.38
2023-02-17T12:36:13.182Z,10.35
2023-02-17T12:39:12.523Z,9.81
2023-02-17T12:42:11.561Z,10.06
2023-02-17T12:45:04.014Z,10.18
2023-02-17T12:47:55.518Z,9.96
2023-02-17T12:50:54.971Z,9.12
2023-02-17T12:53:43.505Z,10.21
2023-02-17T12:56:42.369Z,10.23
2023-02-17T12:59:34.327Z,9.94
2023-02-17T13:02:25.102Z,10.13
2023-02-17T13:05:26.470Z,9.54
2023-02-17T13:08:23.221Z,10.08
2023-02-17T13:11:13.608Z,9.09
2023-02-17T13:14:11.362Z,10.11
2023-02-17T13:16:57.309Z,9.81
2023-02-17T13:19:42.693Z,9.83
2023-02-17T13:22:28.238Z,9.93
2023-02-17T13:25:29.643Z,9.08
2023-02-17T13:28:34.373Z,10.14
2023-02-17T13:31:25.647Z,9.73
2023-02-17T13:34:11.117Z,10.14
2023-02-17T13:36:58.005Z,10.07
2023-02-17T13:39:44.041Z,10.03
2023-02-17T13:42:41.385Z,9.81
2023-02-17T13:45:29.746Z,10.06
2023-02-17T13:48:20.918Z,10.08
2023-02-17T13:51:09.949Z,10.08
2023-02-17T13:53:56.089Z,9.19
2023-02-17T13:56:42.675Z,10.04
2023-02-17T13:59:28.331Z,9.98
2023-02-17T14:02:35.371Z,9.47
2023-02-17T14:05:27.942Z,8.85
2023-02-17T14:08:27.433Z,9.20
2023-02-17T14:11:15.339Z,9.90
2023-02-17T14:14:08.207Z,9.64
2023-02-17T14:16:58.764Z,9.67
2023-02-17T14:19:49.304Z,9.90
2023-02-17T14:22:35.874Z,9.21
2023-02-17T14:25:29.541Z,8.74
2023-02-17T14:28:27.282Z,9.18
2023-02-17T14:31:20.248Z,9.53
2023-02-17T14:34:05.849Z,9.79
2023-02-17T14:36:51.380Z,8.85
2023-02-17T14:39:37.734Z,9.18
2023-02-17T14:42:23.181Z,8.60
2023-02-17T14:45:09.231Z,9.42
2023-02-17T14:47:54.682Z,8.85
2023-02-17T14:50:44.653Z,8.59
2023-02-17T14:53:36.483Z,8.55
2023-02-17T14:56:27.472Z,8.64
2023-02-17T14:59:12.892Z,9.56
2023-02-17T15:01:58.338Z,8.39
2023-02-17T15:04:44.081Z,9.49
2023-02-17T15:07:29.740Z,8.92
2023-02-17T15:10:20.723Z,9.37
2023-02-17T15:13:06.587Z,9.07
2023-02-17T15:15:52.534Z,9.25
2023-02-17T15:18:38.099Z,9.14
2023-02-17T15:21:31.105Z,8.26
2023-02-17T15:24:27.254Z,8.84
2023-02-17T15:27:17.368Z,9.02
2023-02-17T15:30:03.130Z,8.36
2023-02-17T15:32:48.990Z,8.63
2023-02-17T15:35:34.556Z,8.90
2023-02-17T15:38:20.436Z,8.90
2023-02-17T15:41:13.671Z,7.75
2023-02-17T15:44:01.330Z,8.36
2023-02-17T15:46:49.843Z,8.87
2023-02-17T15:49:35.554Z,8.86
2023-02-17T15:52:21.500Z,8.79
2023-02-17T15:55:07.642Z,8.93
2023-02-17T15:57:58.690Z,8.84
2023-02-17T16:00:50.564Z,8.76
2023-02-17T16:03:36.770Z,8.96
2023-02-17T16:06:22.518Z,7.62
2023-02-17T16:09:08.392Z,8.79
2023-02-17T16:11:55.987Z,8.56
2023-02-17T16:14:41.676Z,8.74
2023-02-17T16:17:28.193Z,8.67
2023-02-17T16:20:14.851Z,7.76
2023-02-17T16:23:01.159Z,7.54
2023-02-17T16:25:48.073Z,7.69
2023-02-17T16:28:33.924Z,7.45
2023-02-17T16:31:19.937Z,7.74
2023-02-17T16:34:05.237Z,8.07
2023-02-17T16:36:53.034Z,7.91
2023-02-17T16:39:39.994Z,8.03
2023-02-17T16:42:26.214Z,6.76
2023-02-17T16:45:25.655Z,7.02
2023-02-17T16:48:14.528Z,7.83
2023-02-17T16:51:00.394Z,7.57
2023-02-17T16:53:45.651Z,6.71
2023-02-17T16:56:37.638Z,7.55
2023-02-17T16:59:24.807Z,7.83
2023-02-17T17:02:11.588Z,7.46
2023-02-17T17:04:57.400Z,6.75
2023-02-17T17:07:42.849Z,7.63
2023-02-17T17:10:31.699Z,6.44
2023-02-17T17:13:18.044Z,6.62
2023-02-17T17:16:03.624Z,7.43
2023-02-17T17:18:49.537Z,7.18
2023-02-17T17:21:35.956Z,6.27
2023-02-17T17:24:21.905Z,6.28
2023-02-17T17:27:07.619Z,7.49
2023-02-17T17:29:52.962Z,7.58
2023-02-17T17:32:38.677Z,7.59
2023-02-17T17:35:24.777Z,7.45
2023-02-17T17:38:14.279Z,7.49
2023-02-17T17:41:13.130Z,7.28
2023-02-17T17:43:59.084Z,7.43
2023-02-17T17:46:45.008Z,7.41
2023-02-17T17:49:30.589Z,6.28
2023-02-17T17:52:15.836Z,6.20
2023-02-17T17:55:01.214Z,6.59
2023-02-17T17:57:48.515Z,6.91
2023-02-17T18:00:33.828Z,6.45
2023-02-17T18:03:19.409Z,7.26
2023-02-17T18:06:06.520Z,6.27
2023-02-17T18:08:54.836Z,6.91
2023-02-17T18:11:43.038Z,7.03
2023-02-17T18:14:29.298Z,6.70
2023-02-17T18:17:18.066Z,6.81
2023-02-17T18:20:05.213Z,5.90
2023-02-17T18:22:51.185Z,7.03
2023-02-17T18:25:36.526Z,7.03
2023-02-17T18:28:22.039Z,6.51
2023-02-17T18:31:09.914Z,6.46
2023-02-17T18:33:55.986Z,7.06
2023-02-17T18:36:41.834Z,5.86
2023-02-17T18:39:27.416Z,7.10
2023-02-17T18:42:13.057Z,6.77
2023-02-17T18:44:58.428Z,6.15
2023-02-17T18:47:44.372Z,6.59
2023-02-17T18:50:33.073Z,5.76
2023-02-17T18:53:18.921Z,6.29
2023-02-17T18:56:11.073Z,6.85
2023-02-17T18:58:57.305Z,6.71
2023-02-17T19:01:43.512Z,5.51
2023-02-17T19:04:29.717Z,6.62
2023-02-17T19:07:15.270Z,6.23
2023-02-17T19:10:01.168Z,6.45
2023-02-17T19:12:47.354Z,6.34
2023-02-17T19:15:33.061Z,5.97
2023-02-17T19:18:18.510Z,6.00
2023-02-17T19:21:03.860Z,5.09
2023-02-17T19:23:49.858Z,6.27
2023-02-17T19:26:38.446Z,5.12
2023-02-17T19:29:24.713Z,6.21
2023-02-17T19:32:17.486Z,6.12
2023-02-17T19:35:05.324Z,5.69
2023-02-17T19:37:51.259Z,6.08
2023-02-17T19:40:37.382Z,6.10
2023-02-17T19:43:22.763Z,6.11
2023-02-17T19:46:21.274Z,6.10
2023-02-17T19:49:07.800Z,6.09
2023-02-17T19:51:56.272Z,6.06
2023-02-17T19:54:43.138Z,6.02
2023-02-17T19:57:29.993Z,5.99
2023-02-17T20:00:16.900Z,5.98
2023-02-17T20:03:03.483Z,5.94
2023-02-17T20:05:48.720Z,4.89
2023-02-17T20:08:35.565Z,5.64
2023-02-17T20:11:21.392Z,5.50
2023-02-17T20:14:07.518Z,4.86
2023-02-17T20:16:53.450Z,4.44
2023-02-17T20:19:39.645Z,5.70
2023-02-17T20:22:25.745Z,4.71
2023-02-17T20:25:11.285Z,5.96
2023-02-17T20:28:02.322Z,5.91
2023-02-17T20:30:55.384Z,5.65
2023-02-17T20:33:41.275Z,6.00
2023-02-17T20:36:26.829Z,5.66
2023-02-17T20:39:12.279Z,4.83
2023-02-17T20:41:59.425Z,6.04
2023-02-17T20:44:45.928Z,6.03
2023-02-17T20:47:31.496Z,5.40
2023-02-17T20:50:19.706Z,5.19
2023-02-17T20:53:05.364Z,4.89
2023-02-17T20:55:51.466Z,6.02
2023-02-17T20:58:36.977Z,6.06
2023-02-17T21:01:22.336Z,5.09
2023-02-17T21:04:08.282Z,6.01
2023-02-17T21:06:54.110Z,5.29
2023-02-17T21:09:39.571Z,5.60
2023-02-17T21:12:31.540Z,5.81
2023-02-17T21:15:33.774Z,5.99
2023-02-17T21:18:24.464Z,4.76
2023-02-17T21:21:11.573Z,5.69
2023-02-17T21:23:58.081Z,5.50
2023-02-17T21:26:43.816Z,4.75
2023-02-17T21:29:29.648Z,5.54
2023-02-17T21:32:15.184Z,4.89
2023-02-17T21:35:01.019Z,5.61
2023-02-17T21:37:46.688Z,4.72
2023-02-17T21:40:32.175Z,5.78
2023-02-17T21:43:37.691Z,5.78
2023-02-17T21:46:24.345Z,5.23
2023-02-17T21:49:10.754Z,5.73
2023-02-17T21:51:56.287Z,5.16
2023-02-17T21:54:41.564Z,5.07
2023-02-17T21:57:26.964Z,5.66
2023-02-17T22:00:13.075Z,5.15
2023-02-17T22:02:58.438Z,5.49
2023-02-17T22:05:43.960Z,4.37
2023-02-17T22:08:29.376Z,5.17
2023-02-17T22:11:16.638Z,5.08
2023-02-17T22:14:05.236Z,5.60
2023-02-17T22:16:50.872Z,4.35
2023-02-17T22:19:36.271Z,5.58
2023-02-17T22:22:21.711Z,4.42
2023-02-17T22:25:08.403Z,4.39
2023-02-17T22:27:53.996Z,5.70
2023-02-17T22:30:39.457Z,5.29
2023-02-17T22:33:24.804Z,5.66
2023-02-17T22:36:16.071Z,5.16
2023-02-17T22:39:02.740Z,5.74
2023-02-17T22:41:48.218Z,5.76
2023-02-17T22:44:33.617Z,5.78
2023-02-17T22:47:18.903Z,4.84
2023-02-17T22:50:04.930Z,5.58
2023-02-17T22:52:50.222Z,4.65
2023-02-17T22:55:35.529Z,5.65
2023-02-17T22:58:22.340Z,5.00
2023-02-17T23:01:12.438Z,4.84
2023-02-17T23:03:58.635Z,5.79
2023-02-17T23:06:45.102Z,5.94
2023-02-17T23:09:30.553Z,6.14
2023-02-17T23:12:16.129Z,6.20
2023-02-17T23:15:01.725Z,6.15
2023-02-17T23:17:59.388Z,5.15
2023-02-17T23:20:48.482Z,6.28
2023-02-17T23:23:34.362Z,6.13
2023-02-17T23:26:19.606Z,5.51
2023-02-17T23:29:05.013Z,5.90
2023-02-17T23:31:50.533Z,6.35
2023-02-17T23:34:35.791Z,5.15
2023-02-17T23:37:21.503Z,6.39
2023-02-17T23:40:07.640Z,6.39
2023-02-17T23:42:53.160Z,5.51
2023-02-17T23:45:39.270Z,6.51
2023-02-17T23:48:24.607Z,6.39
2023-02-17T23:51:17.584Z,6.56
2023-02-17T23:54:03.368Z,5.43
2023-02-17T23:56:48.723Z,6.48
2023-02-17T23:59:34.210Z,6.59
